sensor_id;sensor_type;location;lat;lon;timestamp;pressure;altitude;pressure_sealevel;temperature
22828;BMP180;11580;52.562;13.418;2023-02-01T00:01:33;100082.00;;;8.00
22828;BMP180;11580;52.562;13.418;2023-02-01T00:04:00;100064.00;;;8.10
22828;BMP180;11580;52.562;13.418;2023-02-01T00:06:27;100062.00;;;8.10
22828;BMP180;11580;52.562;13.418;2023-02-01T00:08:55;100069.00;;;8.00
22828;BMP180;11580;52.562;13.418;2023-02-01T00:11:23;100058.00;;;8.00
22828;BMP180;11580;52.562;13.418;2023-02-01T00:13:51;100064.00;;;7.90
22828;BMP180;11580;52.562;13.418;2023-02-01T00:16:22;100067.00;;;7.90
22828;BMP180;11580;52.562;13.418;2023-02-01T00:18:52;100052.00;;;7.90
22828;BMP180;11580;52.562;13.418;2023-02-01T00:21:22;100068.00;;;7.80
22828;BMP180;11580;52.562;13.418;2023-02-01T00:23:49;100064.00;;;7.80
22828;BMP180;11580;52.562;13.418;2023-02-01T00:26:22;100062.00;;;7.80
22828;BMP180;11580;52.562;13.418;2023-02-01T00:28:51;100065.00;;;7.70
22828;BMP180;11580;52.562;13.418;2023-02-01T00:31:20;100057.00;;;7.70
22828;BMP180;11580;52.562;13.418;2023-02-01T00:33:48;100066.00;;;7.70
22828;BMP180;11580;52.562;13.418;2023-02-01T00:36:16;100059.00;;;7.70
22828;BMP180;11580;52.562;13.418;2023-02-01T00:38:44;100068.00;;;7.70
22828;BMP180;11580;52.562;13.418;2023-02-01T00:41:14;100073.00;;;7.70
22828;BMP180;11580;52.562;13.418;2023-02-01T00:43:43;100074.00;;;7.70
22828;BMP180;11580;52.562;13.418;2023-02-01T00:46:12;100077.00;;;7.70
22828;BMP180;11580;52.562;13.418;2023-02-01T00:48:42;100075.00;;;7.60
22828;BMP180;11580;52.562;13.418;2023-02-01T00:51:12;100053.00;;;7.70
22828;BMP180;11580;52.562;13.418;2023-02-01T00:53:40;100075.00;;;7.70
22828;BMP180;11580;52.562;13.418;2023-02-01T00:56:08;100089.00;;;7.80
22828;BMP180;11580;52.562;13.418;2023-02-01T00:58:36;100092.00;;;7.80
22828;BMP180;11580;52.562;13.418;2023-02-01T01:01:06;100092.00;;;7.90
22828;BMP180;11580;52.562;13.418;2023-02-01T01:03:37;100083.00;;;8.00
22828;BMP180;11580;52.562;13.418;2023-02-01T01:06:10;100087.00;;;8.10
22828;BMP180;11580;52.562;13.418;2023-02-01T01:08:38;100100.00;;;8.10
22828;BMP180;11580;52.562;13.418;2023-02-01T01:11:07;100081.00;;;8.10
22828;BMP180;11580;52.562;13.418;2023-02-01T01:13:35;100082.00;;;8.10
22828;BMP180;11580;52.562;13.418;2023-02-01T01:16:05;100091.00;;;8.10
22828;BMP180;11580;52.562;13.418;2023-02-01T01:18:34;100081.00;;;8.20
22828;BMP180;11580;52.562;13.418;2023-02-01T01:21:04;100074.00;;;8.10
22828;BMP180;11580;52.562;13.418;2023-02-01T01:23:33;100078.00;;;8.10
22828;BMP180;11580;52.562;13.418;2023-02-01T01:26:00;100066.00;;;8.10
22828;BMP180;11580;52.562;13.418;2023-02-01T01:28:28;100065.00;;;8.10
22828;BMP180;11580;52.562;13.418;2023-02-01T01:30:55;100055.00;;;8.10
22828;BMP180;11580;52.562;13.418;2023-02-01T01:33:22;100060.00;;;8.20
22828;BMP180;11580;52.562;13.418;2023-02-01T01:35:49;100055.00;;;8.20
22828;BMP180;11580;52.562;13.418;2023-02-01T01:38:16;100041.00;;;8.20
22828;BMP180;11580;52.562;13.418;2023-02-01T01:40:47;100054.00;;;8.20
22828;BMP180;11580;52.562;13.418;2023-02-01T01:43:19;100037.00;;;8.20
22828;BMP180;11580;52.562;13.418;2023-02-01T01:45:49;100024.00;;;8.10
22828;BMP180;11580;52.562;13.418;2023-02-01T01:48:23;100044.00;;;8.10
22828;BMP180;11580;52.562;13.418;2023-02-01T01:51:00;100030.00;;;8.10
22828;BMP180;11580;52.562;13.418;2023-02-01T01:53:37;100027.00;;;8.00
22828;BMP180;11580;52.562;13.418;2023-02-01T01:56:07;100045.00;;;8.00
22828;BMP180;11580;52.562;13.418;2023-02-01T01:58:34;100041.00;;;8.00
22828;BMP180;11580;52.562;13.418;2023-02-01T02:01:02;100045.00;;;8.00
22828;BMP180;11580;52.562;13.418;2023-02-01T02:03:37;100036.00;;;8.00
22828;BMP180;11580;52.562;13.418;2023-02-01T02:06:11;100024.00;;;8.00
22828;BMP180;11580;52.562;13.418;2023-02-01T02:08:41;100035.00;;;8.10
22828;BMP180;11580;52.562;13.418;2023-02-01T02:11:12;100046.00;;;8.00
22828;BMP180;11580;52.562;13.418;2023-02-01T02:13:45;100049.00;;;8.10
22828;BMP180;11580;52.562;13.418;2023-02-01T02:16:32;100059.00;;;8.10
22828;BMP180;11580;52.562;13.418;2023-02-01T02:22:48;100039.00;;;8.10
22828;BMP180;11580;52.562;13.418;2023-02-01T02:32:12;100037.00;;;8.10
22828;BMP180;11580;52.562;13.418;2023-02-01T02:34:55;100019.00;;;8.10
22828;BMP180;11580;52.562;13.418;2023-02-01T02:37:34;100019.00;;;8.10
22828;BMP180;11580;52.562;13.418;2023-02-01T02:40:14;100015.00;;;8.20
22828;BMP180;11580;52.562;13.418;2023-02-01T02:42:52;100026.00;;;8.20
22828;BMP180;11580;52.562;13.418;2023-02-01T02:45:49;100027.00;;;8.20
22828;BMP180;11580;52.562;13.418;2023-02-01T02:48:43;100020.00;;;8.20
22828;BMP180;11580;52.562;13.418;2023-02-01T02:51:20;100025.00;;;8.20
22828;BMP180;11580;52.562;13.418;2023-02-01T02:54:13;100020.00;;;8.20
22828;BMP180;11580;52.562;13.418;2023-02-01T02:57:04;100028.00;;;8.30
22828;BMP180;11580;52.562;13.418;2023-02-01T02:59:51;100027.00;;;8.30
22828;BMP180;11580;52.562;13.418;2023-02-01T03:02:38;100028.00;;;8.30
22828;BMP180;11580;52.562;13.418;2023-02-01T03:05:23;100009.00;;;8.30
22828;BMP180;11580;52.562;13.418;2023-02-01T03:08:08;100006.00;;;8.30
22828;BMP180;11580;52.562;13.418;2023-02-01T03:10:48;100021.00;;;8.30
22828;BMP180;11580;52.562;13.418;2023-02-01T03:13:30;100017.00;;;8.30
22828;BMP180;11580;52.562;13.418;2023-02-01T03:16:02;100003.00;;;8.40
22828;BMP180;11580;52.562;13.418;2023-02-01T03:18:38;99999.00;;;8.40
22828;BMP180;11580;52.562;13.418;2023-02-01T03:21:12;99992.00;;;8.40
22828;BMP180;11580;52.562;13.418;2023-02-01T03:23:46;99995.00;;;8.40
22828;BMP180;11580;52.562;13.418;2023-02-01T03:26:17;99982.00;;;8.40
22828;BMP180;11580;52.562;13.418;2023-02-01T03:28:54;99979.00;;;8.50
22828;BMP180;11580;52.562;13.418;2023-02-01T03:31:23;99972.00;;;8.40
22828;BMP180;11580;52.562;13.418;2023-02-01T03:33:51;99978.00;;;8.50
22828;BMP180;11580;52.562;13.418;2023-02-01T03:36:26;99978.00;;;8.50
22828;BMP180;11580;52.562;13.418;2023-02-01T03:39:04;99974.00;;;8.50
22828;BMP180;11580;52.562;13.418;2023-02-01T03:41:40;99983.00;;;8.50
22828;BMP180;11580;52.562;13.418;2023-02-01T03:44:13;99968.00;;;8.50
22828;BMP180;11580;52.562;13.418;2023-02-01T03:46:48;99973.00;;;8.50
22828;BMP180;11580;52.562;13.418;2023-02-01T03:49:24;99957.00;;;8.50
22828;BMP180;11580;52.562;13.418;2023-02-01T03:51:56;99963.00;;;8.50
22828;BMP180;11580;52.562;13.418;2023-02-01T03:54:27;99969.00;;;8.50
22828;BMP180;11580;52.562;13.418;2023-02-01T03:57:00;99954.00;;;8.60
22828;BMP180;11580;52.562;13.418;2023-02-01T03:59:29;99958.00;;;8.60
22828;BMP180;11580;52.562;13.418;2023-02-01T04:01:56;99963.00;;;8.60
22828;BMP180;11580;52.562;13.418;2023-02-01T04:04:24;99949.00;;;8.60
22828;BMP180;11580;52.562;13.418;2023-02-01T04:06:53;99967.00;;;8.60
22828;BMP180;11580;52.562;13.418;2023-02-01T04:09:21;99960.00;;;8.60
22828;BMP180;11580;52.562;13.418;2023-02-01T04:11:49;99961.00;;;8.70
22828;BMP180;11580;52.562;13.418;2023-02-01T04:14:16;99958.00;;;8.70
22828;BMP180;11580;52.562;13.418;2023-02-01T04:16:44;99961.00;;;8.80
22828;BMP180;11580;52.562;13.418;2023-02-01T04:19:11;99963.00;;;8.80
22828;BMP180;11580;52.562;13.418;2023-02-01T04:21:38;99954.00;;;8.80
22828;BMP180;11580;52.562;13.418;2023-02-01T04:24:07;99969.00;;;8.90
22828;BMP180;11580;52.562;13.418;2023-02-01T04:26:34;99965.00;;;8.90
22828;BMP180;11580;52.562;13.418;2023-02-01T04:29:02;99966.00;;;9.00
22828;BMP180;11580;52.562;13.418;2023-02-01T04:31:30;99967.00;;;9.00
22828;BMP180;11580;52.562;13.418;2023-02-01T04:33:57;99959.00;;;9.10
22828;BMP180;11580;52.562;13.418;2023-02-01T04:36:24;99965.00;;;9.10
22828;BMP180;11580;52.562;13.418;2023-02-01T04:38:52;99956.00;;;9.10
22828;BMP180;11580;52.562;13.418;2023-02-01T04:41:20;99963.00;;;9.20
22828;BMP180;11580;52.562;13.418;2023-02-01T04:43:50;99964.00;;;9.20
22828;BMP180;11580;52.562;13.418;2023-02-01T04:46:19;99967.00;;;9.20
22828;BMP180;11580;52.562;13.418;2023-02-01T04:48:46;99953.00;;;9.30
22828;BMP180;11580;52.562;13.418;2023-02-01T04:51:13;99950.00;;;9.40
22828;BMP180;11580;52.562;13.418;2023-02-01T04:53:41;99953.00;;;9.40
22828;BMP180;11580;52.562;13.418;2023-02-01T04:56:09;99950.00;;;9.50
22828;BMP180;11580;52.562;13.418;2023-02-01T04:58:36;99946.00;;;9.60
22828;BMP180;11580;52.562;13.418;2023-02-01T05:01:04;99949.00;;;9.60
22828;BMP180;11580;52.562;13.418;2023-02-01T05:03:34;99935.00;;;9.70
22828;BMP180;11580;52.562;13.418;2023-02-01T05:06:01;99941.00;;;9.70
22828;BMP180;11580;52.562;13.418;2023-02-01T05:08:30;99939.00;;;9.80
22828;BMP180;11580;52.562;13.418;2023-02-01T05:10:57;99941.00;;;9.80
22828;BMP180;11580;52.562;13.418;2023-02-01T05:13:24;99928.00;;;9.80
22828;BMP180;11580;52.562;13.418;2023-02-01T05:16:09;99938.00;;;9.90
22828;BMP180;11580;52.562;13.418;2023-02-01T05:18:38;99940.00;;;9.90
22828;BMP180;11580;52.562;13.418;2023-02-01T05:21:05;99926.00;;;10.00
22828;BMP180;11580;52.562;13.418;2023-02-01T05:23:32;99924.00;;;10.00
22828;BMP180;11580;52.562;13.418;2023-02-01T05:26:19;99920.00;;;10.00
22828;BMP180;11580;52.562;13.418;2023-02-01T05:28:46;99919.00;;;10.10
22828;BMP180;11580;52.562;13.418;2023-02-01T05:31:14;99918.00;;;10.10
22828;BMP180;11580;52.562;13.418;2023-02-01T05:33:42;99919.00;;;10.10
22828;BMP180;11580;52.562;13.418;2023-02-01T05:36:09;99916.00;;;10.10
22828;BMP180;11580;52.562;13.418;2023-02-01T05:38:36;99914.00;;;10.10
22828;BMP180;11580;52.562;13.418;2023-02-01T05:41:04;99926.00;;;10.20
22828;BMP180;11580;52.562;13.418;2023-02-01T05:43:31;99922.00;;;10.20
22828;BMP180;11580;52.562;13.418;2023-02-01T05:45:59;99895.00;;;10.20
22828;BMP180;11580;52.562;13.418;2023-02-01T05:48:26;99913.00;;;10.20
22828;BMP180;11580;52.562;13.418;2023-02-01T05:50:54;99909.00;;;10.20
22828;BMP180;11580;52.562;13.418;2023-02-01T05:53:22;99910.00;;;10.20
22828;BMP180;11580;52.562;13.418;2023-02-01T05:55:49;99899.00;;;10.30
22828;BMP180;11580;52.562;13.418;2023-02-01T05:58:16;99898.00;;;10.30
22828;BMP180;11580;52.562;13.418;2023-02-01T06:00:43;99888.00;;;10.30
22828;BMP180;11580;52.562;13.418;2023-02-01T06:03:10;99888.00;;;10.30
22828;BMP180;11580;52.562;13.418;2023-02-01T06:05:37;99891.00;;;10.30
22828;BMP180;11580;52.562;13.418;2023-02-01T06:08:06;99895.00;;;10.30
22828;BMP180;11580;52.562;13.418;2023-02-01T06:10:34;99893.00;;;10.30
22828;BMP180;11580;52.562;13.418;2023-02-01T06:13:02;99891.00;;;10.30
22828;BMP180;11580;52.562;13.418;2023-02-01T06:15:29;99893.00;;;10.30
22828;BMP180;11580;52.562;13.418;2023-02-01T06:17:57;99905.00;;;10.30
22828;BMP180;11580;52.562;13.418;2023-02-01T06:20:24;99899.00;;;10.30
22828;BMP180;11580;52.562;13.418;2023-02-01T06:22:51;99897.00;;;10.30
22828;BMP180;11580;52.562;13.418;2023-02-01T06:25:20;99902.00;;;10.30
22828;BMP180;11580;52.562;13.418;2023-02-01T06:27:48;99891.00;;;10.30
22828;BMP180;11580;52.562;13.418;2023-02-01T06:30:15;99905.00;;;10.20
22828;BMP180;11580;52.562;13.418;2023-02-01T06:32:44;99893.00;;;10.20
22828;BMP180;11580;52.562;13.418;2023-02-01T06:35:19;99896.00;;;10.20
22828;BMP180;11580;52.562;13.418;2023-02-01T06:37:46;99891.00;;;10.10
22828;BMP180;11580;52.562;13.418;2023-02-01T06:40:14;99881.00;;;10.10
22828;BMP180;11580;52.562;13.418;2023-02-01T06:42:43;99888.00;;;10.10
22828;BMP180;11580;52.562;13.418;2023-02-01T06:45:10;99887.00;;;10.10
22828;BMP180;11580;52.562;13.418;2023-02-01T06:47:37;99886.00;;;10.10
22828;BMP180;11580;52.562;13.418;2023-02-01T06:50:06;99873.00;;;10.10
22828;BMP180;11580;52.562;13.418;2023-02-01T06:52:33;99869.00;;;10.10
22828;BMP180;11580;52.562;13.418;2023-02-01T06:55:00;99864.00;;;10.10
22828;BMP180;11580;52.562;13.418;2023-02-01T06:57:27;99864.00;;;10.10
22828;BMP180;11580;52.562;13.418;2023-02-01T06:59:57;99859.00;;;10.10
22828;BMP180;11580;52.562;13.418;2023-02-01T07:02:25;99858.00;;;10.10
22828;BMP180;11580;52.562;13.418;2023-02-01T07:04:52;99854.00;;;10.10
22828;BMP180;11580;52.562;13.418;2023-02-01T07:07:19;99854.00;;;10.10
22828;BMP180;11580;52.562;13.418;2023-02-01T07:09:50;99865.00;;;10.10
22828;BMP180;11580;52.562;13.418;2023-02-01T07:12:18;99858.00;;;10.20
22828;BMP180;11580;52.562;13.418;2023-02-01T07:14:45;99856.00;;;10.20
22828;BMP180;11580;52.562;13.418;2023-02-01T07:17:14;99806.00;;;10.20
22828;BMP180;11580;52.562;13.418;2023-02-01T07:19:41;99826.00;;;10.20
22828;BMP180;11580;52.562;13.418;2023-02-01T07:22:08;99851.00;;;10.20
22828;BMP180;11580;52.562;13.418;2023-02-01T07:24:35;99844.00;;;10.20
22828;BMP180;11580;52.562;13.418;2023-02-01T07:27:03;99839.00;;;10.20
22828;BMP180;11580;52.562;13.418;2023-02-01T07:29:30;99841.00;;;10.20
22828;BMP180;11580;52.562;13.418;2023-02-01T07:31:57;99830.00;;;10.20
22828;BMP180;11580;52.562;13.418;2023-02-01T07:34:27;99828.00;;;10.20
22828;BMP180;11580;52.562;13.418;2023-02-01T07:36:54;99834.00;;;10.20
22828;BMP180;11580;52.562;13.418;2023-02-01T07:39:22;99827.00;;;10.20
22828;BMP180;11580;52.562;13.418;2023-02-01T07:41:49;99827.00;;;10.20
22828;BMP180;11580;52.562;13.418;2023-02-01T07:44:17;99825.00;;;10.30
22828;BMP180;11580;52.562;13.418;2023-02-01T07:46:48;99822.00;;;10.30
22828;BMP180;11580;52.562;13.418;2023-02-01T07:49:15;99822.00;;;10.30
22828;BMP180;11580;52.562;13.418;2023-02-01T07:51:44;99819.00;;;10.30
22828;BMP180;11580;52.562;13.418;2023-02-01T07:54:11;99822.00;;;10.30
22828;BMP180;11580;52.562;13.418;2023-02-01T07:56:38;99832.00;;;10.30
22828;BMP180;11580;52.562;13.418;2023-02-01T07:59:06;99825.00;;;10.20
22828;BMP180;11580;52.562;13.418;2023-02-01T08:01:34;99839.00;;;10.10
22828;BMP180;11580;52.562;13.418;2023-02-01T08:04:03;99826.00;;;10.10
22828;BMP180;11580;52.562;13.418;2023-02-01T08:06:32;99807.00;;;10.00
22828;BMP180;11580;52.562;13.418;2023-02-01T08:09:03;99822.00;;;9.90
22828;BMP180;11580;52.562;13.418;2023-02-01T08:11:31;99836.00;;;9.80
22828;BMP180;11580;52.562;13.418;2023-02-01T08:13:58;99812.00;;;9.70
22828;BMP180;11580;52.562;13.418;2023-02-01T08:16:26;99830.00;;;9.60
22828;BMP180;11580;52.562;13.418;2023-02-01T08:18:53;99826.00;;;9.50
22828;BMP180;11580;52.562;13.418;2023-02-01T08:21:23;99835.00;;;9.50
22828;BMP180;11580;52.562;13.418;2023-02-01T08:23:51;99840.00;;;9.40
22828;BMP180;11580;52.562;13.418;2023-02-01T08:26:23;99832.00;;;9.40
22828;BMP180;11580;52.562;13.418;2023-02-01T08:28:54;99849.00;;;9.30
22828;BMP180;11580;52.562;13.418;2023-02-01T08:31:24;99847.00;;;9.30
22828;BMP180;11580;52.562;13.418;2023-02-01T08:33:55;99841.00;;;9.20
22828;BMP180;11580;52.562;13.418;2023-02-01T08:36:24;99841.00;;;9.20
22828;BMP180;11580;52.562;13.418;2023-02-01T08:38:52;99852.00;;;9.10
22828;BMP180;11580;52.562;13.418;2023-02-01T08:41:23;99848.00;;;9.10
22828;BMP180;11580;52.562;13.418;2023-02-01T08:43:52;99839.00;;;9.10
22828;BMP180;11580;52.562;13.418;2023-02-01T08:46:20;99849.00;;;9.00
22828;BMP180;11580;52.562;13.418;2023-02-01T08:48:48;99857.00;;;9.00
22828;BMP180;11580;52.562;13.418;2023-02-01T08:51:18;99852.00;;;8.90
22828;BMP180;11580;52.562;13.418;2023-02-01T08:53:46;99846.00;;;8.90
22828;BMP180;11580;52.562;13.418;2023-02-01T08:56:16;99849.00;;;8.90
22828;BMP180;11580;52.562;13.418;2023-02-01T08:58:45;99843.00;;;8.80
22828;BMP180;11580;52.562;13.418;2023-02-01T09:01:15;99841.00;;;8.80
22828;BMP180;11580;52.562;13.418;2023-02-01T09:03:42;99853.00;;;8.80
22828;BMP180;11580;52.562;13.418;2023-02-01T09:06:13;99852.00;;;8.70
22828;BMP180;11580;52.562;13.418;2023-02-01T09:08:41;99854.00;;;8.70
22828;BMP180;11580;52.562;13.418;2023-02-01T09:11:12;99852.00;;;8.70
22828;BMP180;11580;52.562;13.418;2023-02-01T09:13:40;99855.00;;;8.70
22828;BMP180;11580;52.562;13.418;2023-02-01T09:16:09;99854.00;;;8.70
22828;BMP180;11580;52.562;13.418;2023-02-01T09:18:36;99855.00;;;8.70
22828;BMP180;11580;52.562;13.418;2023-02-01T09:21:05;99868.00;;;8.80
22828;BMP180;11580;52.562;13.418;2023-02-01T09:23:32;99869.00;;;8.80
22828;BMP180;11580;52.562;13.418;2023-02-01T09:25:59;99880.00;;;8.90
22828;BMP180;11580;52.562;13.418;2023-02-01T09:28:27;99873.00;;;8.90
22828;BMP180;11580;52.562;13.418;2023-02-01T09:30:56;99884.00;;;8.90
22828;BMP180;11580;52.562;13.418;2023-02-01T09:33:26;99874.00;;;9.00
22828;BMP180;11580;52.562;13.418;2023-02-01T09:35:56;99884.00;;;9.00
22828;BMP180;11580;52.562;13.418;2023-02-01T09:38:23;99874.00;;;9.00
22828;BMP180;11580;52.562;13.418;2023-02-01T09:40:54;99895.00;;;8.90
22828;BMP180;11580;52.562;13.418;2023-02-01T09:43:37;99904.00;;;9.00
22828;BMP180;11580;52.562;13.418;2023-02-01T09:46:20;99899.00;;;9.10
22828;BMP180;11580;52.562;13.418;2023-02-01T09:48:54;99899.00;;;9.10
22828;BMP180;11580;52.562;13.418;2023-02-01T09:51:27;99908.00;;;9.20
22828;BMP180;11580;52.562;13.418;2023-02-01T09:54:02;99920.00;;;9.20
22828;BMP180;11580;52.562;13.418;2023-02-01T09:56:40;99913.00;;;9.20
22828;BMP180;11580;52.562;13.418;2023-02-01T09:59:22;99925.00;;;9.30
22828;BMP180;11580;52.562;13.418;2023-02-01T10:01:50;99915.00;;;9.40
22828;BMP180;11580;52.562;13.418;2023-02-01T10:04:19;99930.00;;;9.40
22828;BMP180;11580;52.562;13.418;2023-02-01T10:07:00;99919.00;;;9.50
22828;BMP180;11580;52.562;13.418;2023-02-01T10:09:50;99923.00;;;9.50
22828;BMP180;11580;52.562;13.418;2023-02-01T10:12:52;99926.00;;;9.50
22828;BMP180;11580;52.562;13.418;2023-02-01T10:15:33;99927.00;;;9.50
22828;BMP180;11580;52.562;13.418;2023-02-01T10:18:23;99926.00;;;9.50
22828;BMP180;11580;52.562;13.418;2023-02-01T10:21:02;99932.00;;;9.40
22828;BMP180;11580;52.562;13.418;2023-02-01T10:23:54;99925.00;;;9.40
22828;BMP180;11580;52.562;13.418;2023-02-01T10:26:32;99929.00;;;9.30
22828;BMP180;11580;52.562;13.418;2023-02-01T10:29:05;99919.00;;;9.30
22828;BMP180;11580;52.562;13.418;2023-02-01T10:31:39;99930.00;;;9.30
22828;BMP180;11580;52.562;13.418;2023-02-01T10:34:18;99927.00;;;9.40
22828;BMP180;11580;52.562;13.418;2023-02-01T10:36:55;99915.00;;;9.40
22828;BMP180;11580;52.562;13.418;2023-02-01T10:39:23;99919.00;;;9.40
22828;BMP180;11580;52.562;13.418;2023-02-01T10:41:50;99922.00;;;9.50
22828;BMP180;11580;52.562;13.418;2023-02-01T10:44:23;99926.00;;;9.60
22828;BMP180;11580;52.562;13.418;2023-02-01T10:46:52;99919.00;;;9.70
22828;BMP180;11580;52.562;13.418;2023-02-01T10:49:28;99920.00;;;9.70
22828;BMP180;11580;52.562;13.418;2023-02-01T10:52:10;99924.00;;;9.80
22828;BMP180;11580;52.562;13.418;2023-02-01T10:54:40;99939.00;;;9.80
22828;BMP180;11580;52.562;13.418;2023-02-01T10:57:09;99906.00;;;9.80
22828;BMP180;11580;52.562;13.418;2023-02-01T10:59:37;99914.00;;;9.70
22828;BMP180;11580;52.562;13.418;2023-02-01T11:02:20;99927.00;;;9.70
22828;BMP180;11580;52.562;13.418;2023-02-01T11:04:48;99904.00;;;9.70
22828;BMP180;11580;52.562;13.418;2023-02-01T11:07:23;99904.00;;;9.70
22828;BMP180;11580;52.562;13.418;2023-02-01T11:09:54;99879.00;;;9.70
22828;BMP180;11580;52.562;13.418;2023-02-01T11:12:33;99897.00;;;9.70
22828;BMP180;11580;52.562;13.418;2023-02-01T11:15:18;99901.00;;;9.80
22828;BMP180;11580;52.562;13.418;2023-02-01T11:17:48;99907.00;;;9.80
22828;BMP180;11580;52.562;13.418;2023-02-01T11:20:20;99902.00;;;9.90
22828;BMP180;11580;52.562;13.418;2023-02-01T11:22:54;99902.00;;;10.00
22828;BMP180;11580;52.562;13.418;2023-02-01T11:25:24;99897.00;;;10.10
22828;BMP180;11580;52.562;13.418;2023-02-01T11:27:54;99890.00;;;10.20
22828;BMP180;11580;52.562;13.418;2023-02-01T11:30:32;99885.00;;;10.30
22828;BMP180;11580;52.562;13.418;2023-02-01T11:33:01;99889.00;;;10.50
22828;BMP180;11580;52.562;13.418;2023-02-01T11:35:30;99887.00;;;10.60
22828;BMP180;11580;52.562;13.418;2023-02-01T11:37:59;99874.00;;;10.70
22828;BMP180;11580;52.562;13.418;2023-02-01T11:40:34;99880.00;;;10.90
22828;BMP180;11580;52.562;13.418;2023-02-01T11:43:17;99885.00;;;11.00
22828;BMP180;11580;52.562;13.418;2023-02-01T11:45:55;99877.00;;;11.10
22828;BMP180;11580;52.562;13.418;2023-02-01T11:48:25;99867.00;;;11.20
22828;BMP180;11580;52.562;13.418;2023-02-01T11:51:16;99871.00;;;11.20
22828;BMP180;11580;52.562;13.418;2023-02-01T11:54:19;99867.00;;;11.30
22828;BMP180;11580;52.562;13.418;2023-02-01T11:57:01;99854.00;;;11.30
22828;BMP180;11580;52.562;13.418;2023-02-01T11:59:58;99859.00;;;11.40
22828;BMP180;11580;52.562;13.418;2023-02-01T12:03:05;99868.00;;;11.50
22828;BMP180;11580;52.562;13.418;2023-02-01T12:05:49;99857.00;;;11.50
22828;BMP180;11580;52.562;13.418;2023-02-01T12:08:47;99848.00;;;11.60
22828;BMP180;11580;52.562;13.418;2023-02-01T12:11:39;99850.00;;;11.70
22828;BMP180;11580;52.562;13.418;2023-02-01T12:14:27;99847.00;;;11.90
22828;BMP180;11580;52.562;13.418;2023-02-01T12:17:30;99839.00;;;12.00
22828;BMP180;11580;52.562;13.418;2023-02-01T12:20:16;99847.00;;;12.10
22828;BMP180;11580;52.562;13.418;2023-02-01T12:23:03;99832.00;;;12.10
22828;BMP180;11580;52.562;13.418;2023-02-01T12:25:57;99831.00;;;12.20
22828;BMP180;11580;52.562;13.418;2023-02-01T12:29:03;99827.00;;;12.20
22828;BMP180;11580;52.562;13.418;2023-02-01T12:31:49;99834.00;;;12.10
22828;BMP180;11580;52.562;13.418;2023-02-01T12:34:50;99820.00;;;12.10
22828;BMP180;11580;52.562;13.418;2023-02-01T12:37:35;99807.00;;;12.10
22828;BMP180;11580;52.562;13.418;2023-02-01T12:40:25;99805.00;;;12.10
22828;BMP180;11580;52.562;13.418;2023-02-01T12:43:02;99799.00;;;12.00
22828;BMP180;11580;52.562;13.418;2023-02-01T12:45:39;99788.00;;;11.90
22828;BMP180;11580;52.562;13.418;2023-02-01T12:48:26;99783.00;;;11.80
22828;BMP180;11580;52.562;13.418;2023-02-01T12:50:58;99777.00;;;11.70
22828;BMP180;11580;52.562;13.418;2023-02-01T12:53:41;99780.00;;;11.60
22828;BMP180;11580;52.562;13.418;2023-02-01T12:56:14;99772.00;;;11.50
22828;BMP180;11580;52.562;13.418;2023-02-01T12:58:47;99770.00;;;11.50
22828;BMP180;11580;52.562;13.418;2023-02-01T13:01:22;99768.00;;;11.50
22828;BMP180;11580;52.562;13.418;2023-02-01T13:04:00;99757.00;;;11.40
22828;BMP180;11580;52.562;13.418;2023-02-01T13:06:35;99761.00;;;11.40
22828;BMP180;11580;52.562;13.418;2023-02-01T13:09:15;99747.00;;;11.40
22828;BMP180;11580;52.562;13.418;2023-02-01T13:11:45;99824.00;;;11.30
22828;BMP180;11580;52.562;13.418;2023-02-01T13:14:25;99853.00;;;11.10
22828;BMP180;11580;52.562;13.418;2023-02-01T13:17:00;99834.00;;;10.60
22828;BMP180;11580;52.562;13.418;2023-02-01T13:19:39;99829.00;;;9.90
22828;BMP180;11580;52.562;13.418;2023-02-01T13:22:15;99806.00;;;9.30
22828;BMP180;11580;52.562;13.418;2023-02-01T13:24:49;99799.00;;;8.80
22828;BMP180;11580;52.562;13.418;2023-02-01T13:27:18;99795.00;;;8.40
22828;BMP180;11580;52.562;13.418;2023-02-01T13:29:54;99790.00;;;8.10
22828;BMP180;11580;52.562;13.418;2023-02-01T13:33:12;99780.00;;;7.90
22828;BMP180;11580;52.562;13.418;2023-02-01T13:36:02;99768.00;;;7.80
22828;BMP180;11580;52.562;13.418;2023-02-01T13:39:09;99763.00;;;7.80
22828;BMP180;11580;52.562;13.418;2023-02-01T13:41:52;99746.00;;;7.90
22828;BMP180;11580;52.562;13.418;2023-02-01T13:44:27;99751.00;;;8.10
22828;BMP180;11580;52.562;13.418;2023-02-01T13:47:00;99743.00;;;8.20
22828;BMP180;11580;52.562;13.418;2023-02-01T13:49:36;99741.00;;;8.40
22828;BMP180;11580;52.562;13.418;2023-02-01T13:52:05;99732.00;;;8.50
22828;BMP180;11580;52.562;13.418;2023-02-01T13:54:36;99745.00;;;8.70
22828;BMP180;11580;52.562;13.418;2023-02-01T13:57:28;99734.00;;;8.90
22828;BMP180;11580;52.562;13.418;2023-02-01T14:00:22;99716.00;;;9.00
22828;BMP180;11580;52.562;13.418;2023-02-01T14:03:21;99722.00;;;9.20
22828;BMP180;11580;52.562;13.418;2023-02-01T14:06:16;99728.00;;;9.30
22828;BMP180;11580;52.562;13.418;2023-02-01T14:09:13;99729.00;;;9.50
22828;BMP180;11580;52.562;13.418;2023-02-01T14:11:47;99684.00;;;9.60
22828;BMP180;11580;52.562;13.418;2023-02-01T14:14:48;99736.00;;;9.70
22828;BMP180;11580;52.562;13.418;2023-02-01T14:17:39;99721.00;;;9.80
22828;BMP180;11580;52.562;13.418;2023-02-01T14:20:40;99703.00;;;9.80
22828;BMP180;11580;52.562;13.418;2023-02-01T14:23:24;99712.00;;;9.80
22828;BMP180;11580;52.562;13.418;2023-02-01T14:26:10;99715.00;;;9.90
22828;BMP180;11580;52.562;13.418;2023-02-01T14:28:49;99705.00;;;9.80
22828;BMP180;11580;52.562;13.418;2023-02-01T14:31:39;99703.00;;;9.90
22828;BMP180;11580;52.562;13.418;2023-02-01T14:34:19;99699.00;;;9.80
22828;BMP180;11580;52.562;13.418;2023-02-01T14:36:54;99684.00;;;9.90
22828;BMP180;11580;52.562;13.418;2023-02-01T14:39:32;99673.00;;;9.90
22828;BMP180;11580;52.562;13.418;2023-02-01T14:42:05;99678.00;;;10.00
22828;BMP180;11580;52.562;13.418;2023-02-01T14:44:41;99673.00;;;10.10
22828;BMP180;11580;52.562;13.418;2023-02-01T14:47:31;99676.00;;;10.10
22828;BMP180;11580;52.562;13.418;2023-02-01T14:50:27;99666.00;;;10.20